KRBD/RBD METAR and TAF weather

Enter ICAO airport designator
Station Type Date Time Source
KRBD METAR 2022/01/18 06:53 UTC NOAA

KRBD 180653Z AUTO 17008KT 10SM CLR 08/M03 A3000 RMK AO2 SLP156 T00781033


Station Type Date Time Source
KRBD Decoded METAR 2022/01/18 06:53 UTC NOAA

DALLAS EXECUTIVE AIRPORT, TX, United States (KRBD) 32-41N 096-52W 203M
Jan 18, 2022 - 01:53 AM EST / 2022.01.18 0653 UTC
Wind: from the S (170 degrees) at 9 MPH (8 KT):0
Visibility: 10 mile(s):0
Sky conditions: clear
Temperature: 46.0 F (7.8 C)
Dew Point: 26.1 F (-3.3 C)
Relative Humidity: 45%
Pressure (altimeter): 30 in. Hg (1015 hPa)
ob: KRBD 180653Z AUTO 17008KT 10SM CLR 08/M03 A3000 RMK AO2 SLP156 T00781033
cycle: 7

Station Type Date Time Source
KRBD TAF UTC NOAA

Error!

Example: see airport list